createdAt,value
2018-11-27T00:02:06.796Z,99170.00
2018-11-27T00:04:37.804Z,99170.00
2018-11-27T00:07:08.800Z,99175.00
2018-11-27T00:09:39.819Z,99177.00
2018-11-27T00:12:10.825Z,99171.00
2018-11-27T00:14:41.832Z,99175.00
2018-11-27T00:17:12.832Z,99179.00
2018-11-27T00:19:43.881Z,99176.00
2018-11-27T00:22:14.891Z,99180.00
2018-11-27T00:24:45.917Z,99182.00
2018-11-27T00:27:16.911Z,99181.00
2018-11-27T00:29:47.946Z,99188.00
2018-11-27T00:32:18.937Z,99190.00
2018-11-27T00:34:49.961Z,99189.00
2018-11-27T00:37:20.957Z,99194.00
2018-11-27T00:39:51.978Z,99195.00
2018-11-27T00:42:22.977Z,99194.00
2018-11-27T00:44:54.002Z,99196.00
2018-11-27T00:47:25.001Z,99199.00
2018-11-27T00:49:56.038Z,99199.00
2018-11-27T00:52:27.018Z,99202.00
2018-11-27T00:54:58.784Z,99206.00
2018-11-27T00:57:29.084Z,99207.00
2018-11-27T01:00:00.136Z,99204.00
2018-11-27T01:02:31.071Z,99208.00
2018-11-27T01:05:02.113Z,99218.00
2018-11-27T01:07:33.116Z,99217.00
2018-11-27T01:10:05.964Z,99216.00
2018-11-27T01:12:36.943Z,99217.00
2018-11-27T01:15:14.771Z,99230.00
2018-11-27T01:17:57.880Z,99230.00
2018-11-27T01:20:34.158Z,99230.00
2018-11-27T01:23:05.611Z,99234.00
2018-11-27T01:25:36.658Z,99237.00
2018-11-27T01:28:07.644Z,99239.00
2018-11-27T01:30:38.660Z,99241.00
2018-11-27T01:33:09.652Z,99242.00
2018-11-27T01:35:40.663Z,99247.00
2018-11-27T01:38:11.665Z,99249.00
2018-11-27T01:40:42.672Z,99250.00
2018-11-27T01:43:13.666Z,99254.00
2018-11-27T01:45:44.676Z,99251.00
2018-11-27T01:48:15.672Z,99261.00
2018-11-27T01:50:46.700Z,99256.00
2018-11-27T01:53:17.688Z,99264.00
2018-11-27T01:55:48.691Z,99272.00
2018-11-27T01:58:19.672Z,99273.00
2018-11-27T02:00:50.692Z,99274.00
2018-11-27T02:03:24.656Z,99275.00
2018-11-27T02:05:55.684Z,99272.00
2018-11-27T02:08:26.676Z,99270.00
2018-11-27T02:10:57.698Z,99267.00
2018-11-27T02:13:28.680Z,99265.00
2018-11-27T02:15:59.701Z,99267.00
2018-11-27T02:18:30.699Z,99270.00
2018-11-27T02:21:01.713Z,99272.00
2018-11-27T02:23:32.746Z,99270.00
2018-11-27T02:26:03.780Z,99268.00
2018-11-27T02:28:34.758Z,99272.00
2018-11-27T02:31:05.798Z,99273.00
2018-11-27T02:33:36.814Z,99271.00
2018-11-27T02:36:07.833Z,99270.00
2018-11-27T02:38:38.827Z,99267.00
2018-11-27T02:41:09.861Z,99268.00
2018-11-27T02:43:40.848Z,99277.00
2018-11-27T02:46:11.875Z,99277.00
2018-11-27T02:48:42.865Z,99272.00
2018-11-27T02:51:13.877Z,99274.00
2018-11-27T02:53:44.888Z,99270.00
2018-11-27T02:56:15.892Z,99269.00
2018-11-27T02:58:46.892Z,99271.00
2018-11-27T03:01:17.921Z,99272.00
2018-11-27T03:03:48.924Z,99275.00
2018-11-27T03:06:20.056Z,99273.00
2018-11-27T03:08:51.045Z,99276.00
2018-11-27T03:11:22.058Z,99278.00
2018-11-27T03:13:53.085Z,99276.00
2018-11-27T03:16:24.097Z,99272.00
2018-11-27T03:18:55.103Z,99274.00
2018-11-27T03:21:26.149Z,99275.00
2018-11-27T03:23:57.161Z,99278.00
2018-11-27T03:26:28.178Z,99279.00
2018-11-27T03:28:59.165Z,99282.00
2018-11-27T03:31:30.195Z,99281.00
2018-11-27T03:34:01.181Z,99288.00
2018-11-27T03:36:32.240Z,99290.00
2018-11-27T03:39:03.301Z,99290.00
2018-11-27T03:41:34.311Z,99292.00
2018-11-27T03:44:05.425Z,99292.00
2018-11-27T03:46:36.455Z,99301.00
2018-11-27T03:49:07.849Z,99297.00
2018-11-27T03:51:38.865Z,99302.00
2018-11-27T03:54:09.851Z,99303.00
2018-11-27T03:56:40.877Z,99309.00
2018-11-27T03:59:11.870Z,99307.00
2018-11-27T04:01:42.889Z,99310.00
2018-11-27T04:04:13.885Z,99312.00
2018-11-27T04:06:44.902Z,99310.00
2018-11-27T04:09:15.892Z,99310.00
2018-11-27T04:11:46.915Z,99316.00
2018-11-27T04:14:17.912Z,99321.00
2018-11-27T04:16:48.928Z,99325.00
2018-11-27T04:19:19.937Z,99330.00
2018-11-27T04:21:50.961Z,99329.00
2018-11-27T04:24:21.963Z,99323.00
2018-11-27T04:26:52.974Z,99330.00
2018-11-27T04:29:23.965Z,99329.00
2018-11-27T04:31:54.979Z,99327.00
2018-11-27T04:34:26.002Z,99329.00
2018-11-27T04:36:57.145Z,99332.00
2018-11-27T04:39:28.136Z,99335.00
2018-11-27T04:41:59.177Z,99336.00
2018-11-27T04:44:30.191Z,99338.00
2018-11-27T04:47:01.201Z,99334.00
2018-11-27T04:49:32.197Z,99331.00
2018-11-27T04:52:03.196Z,99334.00
2018-11-27T04:54:34.198Z,99341.00
2018-11-27T04:57:05.212Z,99339.00
2018-11-27T04:59:36.199Z,99337.00
2018-11-27T05:02:08.049Z,99343.00
2018-11-27T05:04:39.142Z,99350.00
2018-11-27T05:07:10.221Z,99351.00
2018-11-27T05:09:41.214Z,99358.00
2018-11-27T05:12:12.240Z,99357.00
2018-11-27T05:14:51.018Z,99357.00
2018-11-27T05:17:22.752Z,99362.00
2018-11-27T05:19:53.827Z,99368.00
2018-11-27T05:22:24.903Z,99368.00
2018-11-27T05:24:55.942Z,99367.00
2018-11-27T05:27:27.064Z,99369.00
2018-11-27T05:29:58.080Z,99375.00
2018-11-27T05:32:29.145Z,99382.00
2018-11-27T05:35:00.288Z,99377.00
2018-11-27T05:37:31.341Z,99379.00
2018-11-27T05:40:02.370Z,99385.00
2018-11-27T05:42:33.425Z,99386.00
2018-11-27T05:45:04.620Z,99385.00
2018-11-27T05:47:35.775Z,99381.00
2018-11-27T05:50:10.549Z,99384.00
2018-11-27T05:52:41.597Z,99389.00
2018-11-27T05:55:13.761Z,99396.00
2018-11-27T05:57:46.637Z,99398.00
2018-11-27T06:00:21.320Z,99401.00
2018-11-27T06:02:59.971Z,99401.00
2018-11-27T06:05:31.249Z,99408.00
2018-11-27T06:08:02.503Z,99407.00
2018-11-27T06:10:33.535Z,99410.00
2018-11-27T06:13:05.830Z,99416.00
2018-11-27T06:15:38.717Z,99418.00
2018-11-27T06:18:10.276Z,99414.00
2018-11-27T06:20:41.284Z,99415.00
2018-11-27T06:23:12.328Z,99421.00
2018-11-27T06:25:43.471Z,99425.00
2018-11-27T06:28:14.608Z,99431.00
2018-11-27T06:30:46.481Z,99425.00
2018-11-27T06:33:17.545Z,99428.00
2018-11-27T06:35:48.553Z,99429.00
2018-11-27T06:38:19.779Z,99434.00
2018-11-27T06:40:50.805Z,99440.00
2018-11-27T06:43:21.912Z,99446.00
2018-11-27T06:45:53.741Z,99445.00
2018-11-27T06:48:24.804Z,99447.00
2018-11-27T06:50:55.849Z,99446.00
2018-11-27T06:53:26.871Z,99452.00
2018-11-27T06:55:57.916Z,99455.00
2018-11-27T06:58:28.978Z,99459.00
2018-11-27T07:00:59.990Z,99458.00
2018-11-27T07:03:31.042Z,99462.00
2018-11-27T07:06:02.069Z,99468.00
2018-11-27T07:08:33.128Z,99468.00
2018-11-27T07:11:04.206Z,99473.00
2018-11-27T07:13:35.263Z,99475.00
2018-11-27T07:16:11.487Z,99485.00
2018-11-27T07:18:47.763Z,99489.00
2018-11-27T07:21:23.937Z,99492.00
2018-11-27T07:24:00.337Z,99500.00
2018-11-27T07:26:36.691Z,99509.00
2018-11-27T07:29:12.913Z,99507.00
2018-11-27T07:31:49.469Z,99504.00
2018-11-27T07:34:25.997Z,99515.00
2018-11-27T07:37:02.325Z,99522.00
2018-11-27T07:39:38.563Z,99522.00
2018-11-27T07:42:14.905Z,99521.00
2018-11-27T07:44:51.104Z,99530.00
2018-11-27T07:47:27.326Z,99530.00
2018-11-27T07:50:03.705Z,99533.00
2018-11-27T07:52:40.201Z,99538.00
2018-11-27T07:55:21.045Z,99540.00
2018-11-27T07:57:57.391Z,99537.00
2018-11-27T08:00:33.988Z,99541.00
2018-11-27T08:03:10.300Z,99546.00
2018-11-27T08:05:46.537Z,99544.00
2018-11-27T08:08:22.727Z,99547.00
2018-11-27T08:10:59.032Z,99554.00
2018-11-27T08:13:35.395Z,99559.00
2018-11-27T08:16:11.720Z,99563.00
2018-11-27T08:18:47.992Z,99571.00
2018-11-27T08:21:24.274Z,99567.00
2018-11-27T08:24:00.724Z,99571.00
2018-11-27T08:26:37.405Z,99571.00
2018-11-27T08:29:13.692Z,99568.00
2018-11-27T08:31:49.942Z,99578.00
2018-11-27T08:34:26.205Z,99577.00
2018-11-27T08:37:02.608Z,99579.00
2018-11-27T08:39:38.781Z,99582.00
2018-11-27T08:42:15.194Z,99587.00
2018-11-27T08:44:51.547Z,99591.00
2018-11-27T08:47:27.841Z,99592.00
2018-11-27T08:50:04.499Z,99591.00
2018-11-27T08:52:46.335Z,99593.00
2018-11-27T08:55:20.523Z,99591.00
2018-11-27T08:57:57.163Z,99597.00
2018-11-27T09:00:33.369Z,99599.00
2018-11-27T09:03:09.736Z,99603.00
2018-11-27T09:05:45.974Z,99609.00
2018-11-27T09:08:22.169Z,99610.00
2018-11-27T09:10:58.601Z,99611.00
2018-11-27T09:13:34.977Z,99611.00
2018-11-27T09:16:11.193Z,99614.00
2018-11-27T09:18:47.548Z,99618.00
2018-11-27T09:21:23.901Z,99619.00
2018-11-27T09:24:00.320Z,99623.00
2018-11-27T09:26:36.723Z,99624.00
2018-11-27T09:29:13.030Z,99624.00
2018-11-27T09:31:49.476Z,99634.00
2018-11-27T09:34:25.850Z,99630.00
2018-11-27T09:37:02.188Z,99635.00
2018-11-27T09:39:38.588Z,99637.00
2018-11-27T09:42:14.752Z,99634.00
2018-11-27T09:44:51.045Z,99641.00
2018-11-27T09:47:27.293Z,99641.00
2018-11-27T09:50:03.620Z,99642.00
2018-11-27T09:52:39.881Z,99638.00
2018-11-27T09:55:26.721Z,99640.00
2018-11-27T09:58:03.000Z,99640.00
2018-11-27T10:00:39.352Z,99639.00
2018-11-27T10:03:16.712Z,99639.00
2018-11-27T10:05:53.012Z,99638.00
2018-11-27T10:08:29.344Z,99645.00
2018-11-27T10:11:05.934Z,99648.00
2018-11-27T10:13:42.310Z,99648.00
2018-11-27T10:16:18.651Z,99652.00
2018-11-27T10:18:54.934Z,99650.00
2018-11-27T10:21:31.517Z,99653.00
2018-11-27T10:24:08.265Z,99654.00
2018-11-27T10:26:44.598Z,99653.00
2018-11-27T10:29:20.857Z,99655.00
2018-11-27T10:31:57.340Z,99658.00
2018-11-27T10:34:33.682Z,99662.00
2018-11-27T10:37:10.194Z,99663.00
2018-11-27T10:39:46.664Z,99662.00
2018-11-27T10:42:23.173Z,99659.00
2018-11-27T10:44:59.609Z,99655.00
2018-11-27T10:47:36.009Z,99653.00
2018-11-27T10:50:13.966Z,99654.00
2018-11-27T10:52:53.209Z,99660.00
2018-11-27T10:55:29.439Z,99662.00
2018-11-27T10:58:06.573Z,99658.00
2018-11-27T11:00:48.245Z,99660.00
2018-11-27T11:03:24.707Z,99662.00
2018-11-27T11:06:01.166Z,99664.00
2018-11-27T11:08:37.384Z,99669.00
2018-11-27T11:11:13.778Z,99668.00
2018-11-27T11:13:51.756Z,99672.00
2018-11-27T11:16:28.225Z,99680.00
2018-11-27T11:19:04.837Z,99678.00
2018-11-27T11:21:41.509Z,99674.00
2018-11-27T11:24:17.724Z,99670.00
2018-11-27T11:26:53.945Z,99673.00
2018-11-27T11:29:30.319Z,99676.00
2018-11-27T11:32:07.250Z,99674.00
2018-11-27T11:34:43.449Z,99673.00
2018-11-27T11:37:19.837Z,99671.00
2018-11-27T11:39:56.082Z,99674.00
2018-11-27T11:42:32.316Z,99675.00
2018-11-27T11:45:10.172Z,99675.00
2018-11-27T11:47:46.467Z,99678.00
2018-11-27T11:50:26.868Z,99679.00
2018-11-27T11:53:10.630Z,99677.00
2018-11-27T11:55:48.044Z,99680.00
2018-11-27T11:58:24.141Z,99680.00
2018-11-27T12:01:00.498Z,99683.00
2018-11-27T12:03:36.999Z,99690.00
2018-11-27T12:06:13.267Z,99689.00
2018-11-27T12:08:49.461Z,99692.00
2018-11-27T12:11:25.839Z,99695.00
2018-11-27T12:14:02.200Z,99694.00
2018-11-27T12:16:38.590Z,99690.00
2018-11-27T12:19:15.002Z,99694.00
2018-11-27T12:21:51.574Z,99698.00
2018-11-27T12:24:28.047Z,99700.00
2018-11-27T12:27:04.245Z,99700.00
2018-11-27T12:29:40.450Z,99704.00
2018-11-27T12:32:16.777Z,99701.00
2018-11-27T12:34:53.002Z,99711.00
2018-11-27T12:37:29.183Z,99711.00
2018-11-27T12:40:09.553Z,99708.00
2018-11-27T12:42:45.714Z,99714.00
2018-11-27T12:45:28.611Z,99712.00
2018-11-27T12:48:05.734Z,99713.00
2018-11-27T12:50:45.758Z,99716.00
2018-11-27T12:53:22.159Z,99718.00
2018-11-27T12:55:58.475Z,99719.00
2018-11-27T12:58:34.788Z,99724.00
2018-11-27T13:01:11.235Z,99724.00
2018-11-27T13:03:47.433Z,99722.00
2018-11-27T13:06:27.843Z,99724.00
2018-11-27T13:08:59.827Z,99724.00
2018-11-27T13:11:36.116Z,99722.00
2018-11-27T13:14:12.488Z,99723.00
2018-11-27T13:16:48.834Z,99720.00
2018-11-27T13:19:26.689Z,99723.00
2018-11-27T13:22:03.014Z,99720.00
2018-11-27T13:24:39.396Z,99719.00
2018-11-27T13:27:15.785Z,99724.00
2018-11-27T13:29:52.029Z,99720.00
2018-11-27T13:32:28.235Z,99718.00
2018-11-27T13:35:04.633Z,99722.00
2018-11-27T13:37:40.930Z,99723.00
2018-11-27T13:40:17.329Z,99726.00
2018-11-27T13:42:53.632Z,99731.00
2018-11-27T13:45:29.824Z,99730.00
2018-11-27T13:48:07.303Z,99731.00
2018-11-27T13:50:43.689Z,99729.00
2018-11-27T13:53:19.821Z,99733.00
2018-11-27T13:55:56.448Z,99741.00
2018-11-27T13:58:32.654Z,99742.00
2018-11-27T14:01:09.014Z,99751.00
2018-11-27T14:03:45.252Z,99749.00
2018-11-27T14:06:21.440Z,99753.00
2018-11-27T14:08:57.602Z,99758.00
2018-11-27T14:11:34.001Z,99763.00
2018-11-27T14:14:10.378Z,99764.00
2018-11-27T14:16:46.826Z,99764.00
2018-11-27T14:19:23.136Z,99765.00
2018-11-27T14:21:59.560Z,99772.00
2018-11-27T14:24:35.895Z,99776.00
2018-11-27T14:27:12.208Z,99779.00
2018-11-27T14:29:48.618Z,99779.00
2018-11-27T14:32:24.784Z,99780.00
2018-11-27T14:35:00.953Z,99784.00
2018-11-27T14:37:37.160Z,99777.00
2018-11-27T14:40:17.982Z,99779.00
2018-11-27T14:42:54.250Z,99778.00
2018-11-27T14:45:30.448Z,99778.00
2018-11-27T14:48:07.693Z,99777.00
2018-11-27T14:50:43.968Z,99792.00
2018-11-27T14:53:20.253Z,99794.00
2018-11-27T14:55:56.797Z,99802.00
2018-11-27T14:58:32.929Z,99802.00
2018-11-27T15:01:09.115Z,99805.00
2018-11-27T15:03:45.499Z,99810.00
2018-11-27T15:06:21.817Z,99815.00
2018-11-27T15:08:58.372Z,99811.00
2018-11-27T15:11:34.479Z,99816.00
2018-11-27T15:14:10.773Z,99811.00
2018-11-27T15:16:47.080Z,99817.00
2018-11-27T15:19:23.321Z,99813.00
2018-11-27T15:21:59.488Z,99820.00
2018-11-27T15:24:35.680Z,99826.00
2018-11-27T15:27:11.875Z,99829.00
2018-11-27T15:29:48.093Z,99828.00
2018-11-27T15:32:24.245Z,99824.00
2018-11-27T15:35:00.832Z,99828.00
2018-11-27T15:37:37.234Z,99828.00
2018-11-27T15:40:18.105Z,99833.00
2018-11-27T15:42:54.478Z,99843.00
2018-11-27T15:45:33.027Z,99844.00
2018-11-27T15:48:09.957Z,99850.00
2018-11-27T15:50:46.160Z,99852.00
2018-11-27T15:53:22.291Z,99851.00
2018-11-27T15:55:58.636Z,99853.00
2018-11-27T15:58:34.785Z,99854.00
2018-11-27T16:01:11.017Z,99859.00
2018-11-27T16:03:47.281Z,99861.00
2018-11-27T16:06:23.626Z,99859.00
2018-11-27T16:08:59.940Z,99860.00
2018-11-27T16:11:36.292Z,99860.00
2018-11-27T16:14:12.494Z,99861.00
2018-11-27T16:16:48.677Z,99866.00
2018-11-27T16:19:24.968Z,99875.00
2018-11-27T16:22:01.197Z,99879.00
2018-11-27T16:24:37.517Z,99882.00
2018-11-27T16:27:13.711Z,99883.00
2018-11-27T16:29:49.879Z,99885.00
2018-11-27T16:32:26.065Z,99888.00
2018-11-27T16:35:02.349Z,99890.00
2018-11-27T16:37:38.728Z,99899.00
2018-11-27T16:40:21.958Z,99898.00
2018-11-27T16:42:58.176Z,99905.00
2018-11-27T16:45:34.364Z,99909.00
2018-11-27T16:48:10.536Z,99908.00
2018-11-27T16:50:46.697Z,99905.00
2018-11-27T16:53:22.940Z,99911.00
2018-11-27T16:55:59.176Z,99906.00
2018-11-27T16:58:35.558Z,99909.00
2018-11-27T17:01:11.945Z,99915.00
2018-11-27T17:03:48.208Z,99913.00
2018-11-27T17:06:24.584Z,99908.00
2018-11-27T17:09:00.730Z,99910.00
2018-11-27T17:11:37.155Z,99912.00
2018-11-27T17:14:13.467Z,99917.00
2018-11-27T17:16:49.852Z,99913.00
2018-11-27T17:19:26.124Z,99918.00
2018-11-27T17:22:02.449Z,99922.00
2018-11-27T17:24:38.724Z,99919.00
2018-11-27T17:27:15.075Z,99917.00
2018-11-27T17:29:51.345Z,99923.00
2018-11-27T17:32:27.544Z,99924.00
2018-11-27T17:35:03.687Z,99918.00
2018-11-27T17:37:39.926Z,99919.00
2018-11-27T17:40:16.133Z,99925.00
2018-11-27T17:42:52.308Z,99931.00
2018-11-27T17:45:28.668Z,99932.00
2018-11-27T17:48:05.135Z,99930.00
2018-11-27T17:50:41.244Z,99934.00
2018-11-27T17:53:17.429Z,99936.00
2018-11-27T17:55:53.808Z,99940.00
2018-11-27T17:58:29.937Z,99937.00
2018-11-27T18:01:07.898Z,99935.00
2018-11-27T18:03:44.284Z,99932.00
2018-11-27T18:06:20.457Z,99940.00
2018-11-27T18:08:56.727Z,99944.00
2018-11-27T18:11:33.177Z,99947.00
2018-11-27T18:14:09.524Z,99950.00
2018-11-27T18:16:45.755Z,99949.00
2018-11-27T18:19:22.128Z,99955.00
2018-11-27T18:21:58.539Z,99954.00
2018-11-27T18:24:34.682Z,99952.00
2018-11-27T18:27:11.499Z,99959.00
2018-11-27T18:29:48.139Z,99958.00
2018-11-27T18:32:24.566Z,99960.00
2018-11-27T18:35:00.713Z,99966.00
2018-11-27T18:37:38.493Z,99972.00
2018-11-27T18:40:15.901Z,99976.00
2018-11-27T18:42:54.453Z,99972.00
2018-11-27T18:45:32.132Z,99966.00
2018-11-27T18:48:08.871Z,99953.00
2018-11-27T18:50:45.374Z,99952.00
2018-11-27T18:53:22.505Z,99963.00
2018-11-27T18:55:58.671Z,99967.00
2018-11-27T18:58:35.080Z,99968.00
2018-11-27T19:01:11.756Z,99966.00
2018-11-27T19:03:48.519Z,99972.00
2018-11-27T19:06:25.146Z,99972.00
2018-11-27T19:09:01.572Z,99980.00
2018-11-27T19:11:38.356Z,99986.00
2018-11-27T19:14:14.673Z,99987.00
2018-11-27T19:16:51.491Z,99991.00
2018-11-27T19:19:27.916Z,99991.00
2018-11-27T19:22:04.253Z,99994.00
2018-11-27T19:26:04.999Z,99994.00
2018-11-27T19:28:41.221Z,99995.00
2018-11-27T19:31:17.443Z,100003.00
2018-11-27T19:33:53.812Z,99999.00
2018-11-27T19:36:29.997Z,100000.00
2018-11-27T19:39:09.376Z,99998.00
2018-11-27T19:41:45.616Z,100006.00
2018-11-27T19:44:21.912Z,100006.00
2018-11-27T19:46:58.337Z,100012.00
2018-11-27T19:49:34.745Z,100013.00
2018-11-27T19:52:11.012Z,100012.00
2018-11-27T19:54:47.201Z,99998.00
2018-11-27T19:57:23.392Z,99994.00
2018-11-27T19:59:59.750Z,99996.00
2018-11-27T20:02:36.036Z,99992.00
2018-11-27T20:05:14.169Z,99996.00
2018-11-27T20:07:51.003Z,100001.00
2018-11-27T20:10:27.365Z,100005.00
2018-11-27T20:13:03.728Z,100006.00
2018-11-27T20:15:40.183Z,100013.00
2018-11-27T20:18:16.489Z,100009.00
2018-11-27T20:20:52.805Z,100007.00
2018-11-27T20:23:29.149Z,100012.00
2018-11-27T20:26:06.119Z,100010.00
2018-11-27T20:28:42.527Z,100009.00
2018-11-27T20:31:18.738Z,100001.00
2018-11-27T20:33:55.216Z,100003.00
2018-11-27T20:36:31.621Z,100000.00
2018-11-27T20:39:10.341Z,100003.00
2018-11-27T20:41:46.537Z,100006.00
2018-11-27T20:44:23.080Z,100005.00
2018-11-27T20:46:59.301Z,100003.00
2018-11-27T20:49:35.729Z,100003.00
2018-11-27T20:52:12.033Z,100011.00
2018-11-27T20:54:48.221Z,100013.00
2018-11-27T20:57:24.499Z,100012.00
2018-11-27T21:00:01.234Z,100012.00
2018-11-27T21:02:37.697Z,100020.00
2018-11-27T21:05:13.953Z,100021.00
2018-11-27T21:07:50.321Z,100024.00
2018-11-27T21:10:26.702Z,100028.00
2018-11-27T21:13:03.243Z,100024.00
2018-11-27T21:15:41.077Z,100032.00
2018-11-27T21:18:17.232Z,100041.00
2018-11-27T21:20:53.573Z,100050.00
2018-11-27T21:23:29.910Z,100051.00
2018-11-27T21:26:06.565Z,100052.00
2018-11-27T21:28:42.812Z,100049.00
2018-11-27T21:31:24.002Z,100043.00
2018-11-27T21:33:57.096Z,100041.00
2018-11-27T21:36:33.473Z,100038.00
2018-11-27T21:39:10.390Z,100036.00
2018-11-27T21:41:46.624Z,100041.00
2018-11-27T21:44:22.845Z,100036.00
2018-11-27T21:46:59.116Z,100030.00
2018-11-27T21:49:35.356Z,100030.00
2018-11-27T21:52:11.748Z,100032.00
2018-11-27T21:54:47.977Z,100033.00
2018-11-27T21:57:24.340Z,100034.00
2018-11-27T22:00:00.524Z,100034.00
2018-11-27T22:02:36.871Z,100037.00
2018-11-27T22:05:13.976Z,100033.00
2018-11-27T22:07:50.321Z,100039.00
2018-11-27T22:10:26.686Z,100039.00
2018-11-27T22:13:02.981Z,100043.00
2018-11-27T22:15:40.973Z,100040.00
2018-11-27T22:18:17.353Z,100042.00
2018-11-27T22:20:53.628Z,100048.00
2018-11-27T22:23:30.127Z,100046.00
2018-11-27T22:26:06.367Z,100041.00
2018-11-27T22:28:42.480Z,100048.00
2018-11-27T22:31:18.745Z,100046.00
2018-11-27T22:33:54.918Z,100045.00
2018-11-27T22:36:31.137Z,100043.00
2018-11-27T22:39:09.720Z,100045.00
2018-11-27T22:41:46.164Z,100045.00
2018-11-27T22:44:22.564Z,100047.00
2018-11-27T22:46:59.093Z,100057.00
2018-11-27T22:49:35.357Z,100062.00
2018-11-27T22:52:11.697Z,100064.00
2018-11-27T22:54:47.991Z,100064.00
2018-11-27T22:57:24.205Z,100059.00
2018-11-27T23:00:00.591Z,100068.00
2018-11-27T23:02:36.935Z,100070.00
2018-11-27T23:05:13.372Z,100072.00
2018-11-27T23:07:49.808Z,100071.00
2018-11-27T23:10:30.002Z,100067.00
2018-11-27T23:13:06.816Z,100069.00
2018-11-27T23:15:43.199Z,100074.00
2018-11-27T23:18:19.464Z,100078.00
2018-11-27T23:20:55.641Z,100082.00
2018-11-27T23:23:31.872Z,100074.00
2018-11-27T23:26:08.357Z,100074.00
2018-11-27T23:28:44.790Z,100079.00
2018-11-27T23:31:21.020Z,100080.00
2018-11-27T23:33:57.192Z,100070.00
2018-11-27T23:36:33.341Z,100067.00
2018-11-27T23:39:09.752Z,100062.00
2018-11-27T23:41:46.094Z,100062.00
2018-11-27T23:44:22.425Z,100063.00
2018-11-27T23:46:58.632Z,100060.00
2018-11-27T23:49:34.964Z,100060.00
2018-11-27T23:52:11.382Z,100056.00
2018-11-27T23:54:47.786Z,100054.00
2018-11-27T23:57:23.972Z,100052.00
